sensor_id;sensor_type;location;lat;lon;timestamp;P1;durP1;ratioP1;P2;durP2;ratioP2
21543;SDS011;10933;50.754;11.508;2023-12-14T00:01:29;16.37;;;14.80;;
21543;SDS011;10933;50.754;11.508;2023-12-14T00:03:55;17.37;;;15.53;;
21543;SDS011;10933;50.754;11.508;2023-12-14T00:06:21;17.53;;;15.87;;
21543;SDS011;10933;50.754;11.508;2023-12-14T00:08:47;17.33;;;16.13;;
21543;SDS011;10933;50.754;11.508;2023-12-14T00:11:13;17.60;;;16.03;;
21543;SDS011;10933;50.754;11.508;2023-12-14T00:13:39;21.30;;;16.17;;
21543;SDS011;10933;50.754;11.508;2023-12-14T00:16:06;19.13;;;17.20;;
21543;SDS011;10933;50.754;11.508;2023-12-14T00:18:32;18.50;;;16.63;;
21543;SDS011;10933;50.754;11.508;2023-12-14T00:20:59;18.00;;;16.27;;
21543;SDS011;10933;50.754;11.508;2023-12-14T00:23:25;17.30;;;15.90;;
21543;SDS011;10933;50.754;11.508;2023-12-14T00:25:51;17.77;;;15.80;;
21543;SDS011;10933;50.754;11.508;2023-12-14T00:28:17;17.47;;;15.67;;
21543;SDS011;10933;50.754;11.508;2023-12-14T00:30:44;18.27;;;16.37;;
21543;SDS011;10933;50.754;11.508;2023-12-14T00:33:10;17.40;;;16.00;;
21543;SDS011;10933;50.754;11.508;2023-12-14T00:35:36;16.10;;;14.67;;
21543;SDS011;10933;50.754;11.508;2023-12-14T00:38:02;20.60;;;15.50;;
21543;SDS011;10933;50.754;11.508;2023-12-14T00:40:28;20.30;;;15.70;;
21543;SDS011;10933;50.754;11.508;2023-12-14T00:42:54;16.20;;;15.07;;
21543;SDS011;10933;50.754;11.508;2023-12-14T00:45:20;15.83;;;14.73;;
21543;SDS011;10933;50.754;11.508;2023-12-14T00:47:46;15.13;;;13.90;;
21543;SDS011;10933;50.754;11.508;2023-12-14T00:50:12;16.37;;;14.83;;
21543;SDS011;10933;50.754;11.508;2023-12-14T00:52:38;15.70;;;14.43;;
21543;SDS011;10933;50.754;11.508;2023-12-14T00:55:04;16.57;;;15.20;;
21543;SDS011;10933;50.754;11.508;2023-12-14T00:57:31;16.03;;;14.70;;
21543;SDS011;10933;50.754;11.508;2023-12-14T00:59:57;16.27;;;14.70;;
21543;SDS011;10933;50.754;11.508;2023-12-14T01:02:23;15.67;;;14.40;;
21543;SDS011;10933;50.754;11.508;2023-12-14T01:04:49;14.93;;;13.63;;
21543;SDS011;10933;50.754;11.508;2023-12-14T01:07:15;15.60;;;14.43;;
21543;SDS011;10933;50.754;11.508;2023-12-14T01:09:43;14.63;;;13.60;;
21543;SDS011;10933;50.754;11.508;2023-12-14T01:12:09;15.67;;;14.37;;
21543;SDS011;10933;50.754;11.508;2023-12-14T01:14:35;15.47;;;14.17;;
21543;SDS011;10933;50.754;11.508;2023-12-14T01:17:01;17.70;;;14.20;;
21543;SDS011;10933;50.754;11.508;2023-12-14T01:19:27;14.63;;;13.63;;
21543;SDS011;10933;50.754;11.508;2023-12-14T01:21:53;15.33;;;13.93;;
21543;SDS011;10933;50.754;11.508;2023-12-14T01:24:20;15.53;;;14.40;;
21543;SDS011;10933;50.754;11.508;2023-12-14T01:26:46;14.87;;;13.53;;
21543;SDS011;10933;50.754;11.508;2023-12-14T01:29:12;15.20;;;14.17;;
21543;SDS011;10933;50.754;11.508;2023-12-14T01:31:38;14.30;;;13.20;;
21543;SDS011;10933;50.754;11.508;2023-12-14T01:34:04;13.87;;;12.77;;
21543;SDS011;10933;50.754;11.508;2023-12-14T01:36:31;13.57;;;12.50;;
21543;SDS011;10933;50.754;11.508;2023-12-14T01:38:57;14.07;;;12.97;;
21543;SDS011;10933;50.754;11.508;2023-12-14T01:41:23;15.00;;;13.70;;
21543;SDS011;10933;50.754;11.508;2023-12-14T01:43:49;13.80;;;12.80;;
21543;SDS011;10933;50.754;11.508;2023-12-14T01:46:15;12.90;;;12.10;;
21543;SDS011;10933;50.754;11.508;2023-12-14T01:48:41;13.40;;;12.27;;
21543;SDS011;10933;50.754;11.508;2023-12-14T01:51:07;22.20;;;20.37;;
21543;SDS011;10933;50.754;11.508;2023-12-14T01:53:35;16.13;;;14.93;;
21543;SDS011;10933;50.754;11.508;2023-12-14T01:56:01;14.87;;;13.60;;
21543;SDS011;10933;50.754;11.508;2023-12-14T01:58:27;15.17;;;14.17;;
21543;SDS011;10933;50.754;11.508;2023-12-14T02:00:59;14.70;;;13.60;;
21543;SDS011;10933;50.754;11.508;2023-12-14T02:03:32;13.80;;;12.80;;
21543;SDS011;10933;50.754;11.508;2023-12-14T02:05:59;14.40;;;13.40;;
21543;SDS011;10933;50.754;11.508;2023-12-14T02:08:25;12.03;;;11.33;;
21543;SDS011;10933;50.754;11.508;2023-12-14T02:10:54;13.60;;;12.63;;
21543;SDS011;10933;50.754;11.508;2023-12-14T02:13:20;12.70;;;11.80;;
21543;SDS011;10933;50.754;11.508;2023-12-14T02:15:47;13.33;;;12.43;;
21543;SDS011;10933;50.754;11.508;2023-12-14T02:18:13;12.90;;;12.10;;
21543;SDS011;10933;50.754;11.508;2023-12-14T02:20:39;12.37;;;11.57;;
21543;SDS011;10933;50.754;11.508;2023-12-14T02:23:05;11.93;;;11.13;;
21543;SDS011;10933;50.754;11.508;2023-12-14T02:25:31;11.53;;;10.83;;
21543;SDS011;10933;50.754;11.508;2023-12-14T02:27:57;11.87;;;10.97;;
21543;SDS011;10933;50.754;11.508;2023-12-14T02:30:23;12.17;;;11.27;;
21543;SDS011;10933;50.754;11.508;2023-12-14T02:32:50;11.33;;;10.63;;
21543;SDS011;10933;50.754;11.508;2023-12-14T02:35:16;11.00;;;10.30;;
21543;SDS011;10933;50.754;11.508;2023-12-14T02:37:43;11.97;;;10.90;;
21543;SDS011;10933;50.754;11.508;2023-12-14T02:40:10;11.20;;;10.40;;
21543;SDS011;10933;50.754;11.508;2023-12-14T02:42:36;11.33;;;10.33;;
21543;SDS011;10933;50.754;11.508;2023-12-14T02:45:03;8.87;;;8.27;;
21543;SDS011;10933;50.754;11.508;2023-12-14T02:47:29;9.70;;;9.10;;
21543;SDS011;10933;50.754;11.508;2023-12-14T02:49:55;13.77;;;8.97;;
21543;SDS011;10933;50.754;11.508;2023-12-14T02:52:22;8.00;;;7.40;;
21543;SDS011;10933;50.754;11.508;2023-12-14T02:54:48;9.33;;;8.73;;
21543;SDS011;10933;50.754;11.508;2023-12-14T02:57:14;8.53;;;7.73;;
21543;SDS011;10933;50.754;11.508;2023-12-14T02:59:40;8.03;;;7.53;;
21543;SDS011;10933;50.754;11.508;2023-12-14T03:02:06;7.80;;;7.20;;
21543;SDS011;10933;50.754;11.508;2023-12-14T03:04:32;7.17;;;6.53;;
21543;SDS011;10933;50.754;11.508;2023-12-14T03:06:58;4.97;;;4.67;;
21543;SDS011;10933;50.754;11.508;2023-12-14T03:09:27;5.10;;;4.63;;
21543;SDS011;10933;50.754;11.508;2023-12-14T03:11:54;4.87;;;4.17;;
21543;SDS011;10933;50.754;11.508;2023-12-14T03:14:20;4.20;;;3.90;;
21543;SDS011;10933;50.754;11.508;2023-12-14T03:16:46;3.53;;;3.30;;
21543;SDS011;10933;50.754;11.508;2023-12-14T03:19:13;3.27;;;3.07;;
21543;SDS011;10933;50.754;11.508;2023-12-14T03:21:42;3.40;;;3.20;;
21543;SDS011;10933;50.754;11.508;2023-12-14T03:24:08;3.73;;;3.53;;
21543;SDS011;10933;50.754;11.508;2023-12-14T03:26:35;3.97;;;3.60;;
21543;SDS011;10933;50.754;11.508;2023-12-14T03:29:01;5.30;;;5.00;;
21543;SDS011;10933;50.754;11.508;2023-12-14T03:31:27;3.40;;;3.10;;
21543;SDS011;10933;50.754;11.508;2023-12-14T03:33:53;3.43;;;3.23;;
21543;SDS011;10933;50.754;11.508;2023-12-14T03:36:19;4.00;;;3.80;;
21543;SDS011;10933;50.754;11.508;2023-12-14T03:38:47;3.80;;;3.47;;
21543;SDS011;10933;50.754;11.508;2023-12-14T03:41:13;3.80;;;3.60;;
21543;SDS011;10933;50.754;11.508;2023-12-14T03:43:39;3.40;;;3.20;;
21543;SDS011;10933;50.754;11.508;2023-12-14T03:46:05;3.23;;;3.03;;
21543;SDS011;10933;50.754;11.508;2023-12-14T03:48:32;2.60;;;2.50;;
21543;SDS011;10933;50.754;11.508;2023-12-14T03:51:01;2.97;;;2.77;;
21543;SDS011;10933;50.754;11.508;2023-12-14T03:53:28;3.30;;;3.10;;
21543;SDS011;10933;50.754;11.508;2023-12-14T03:55:55;2.80;;;2.67;;
21543;SDS011;10933;50.754;11.508;2023-12-14T03:58:22;3.27;;;3.07;;
21543;SDS011;10933;50.754;11.508;2023-12-14T04:00:48;3.00;;;2.80;;
21543;SDS011;10933;50.754;11.508;2023-12-14T04:03:14;2.93;;;2.73;;
21543;SDS011;10933;50.754;11.508;2023-12-14T04:05:40;4.87;;;3.00;;
21543;SDS011;10933;50.754;11.508;2023-12-14T04:08:06;3.77;;;3.57;;
21543;SDS011;10933;50.754;11.508;2023-12-14T04:10:32;3.73;;;3.43;;
21543;SDS011;10933;50.754;11.508;2023-12-14T04:12:58;3.53;;;3.30;;
21543;SDS011;10933;50.754;11.508;2023-12-14T04:15:24;4.03;;;3.40;;
21543;SDS011;10933;50.754;11.508;2023-12-14T04:17:50;3.90;;;3.70;;
21543;SDS011;10933;50.754;11.508;2023-12-14T04:20:16;3.60;;;3.40;;
21543;SDS011;10933;50.754;11.508;2023-12-14T04:22:43;4.53;;;4.10;;
21543;SDS011;10933;50.754;11.508;2023-12-14T04:25:10;4.30;;;3.90;;
21543;SDS011;10933;50.754;11.508;2023-12-14T04:27:39;5.47;;;3.70;;
21543;SDS011;10933;50.754;11.508;2023-12-14T04:30:05;6.17;;;5.63;;
21543;SDS011;10933;50.754;11.508;2023-12-14T04:32:35;3.33;;;3.13;;
21543;SDS011;10933;50.754;11.508;2023-12-14T04:35:05;3.47;;;3.17;;
21543;SDS011;10933;50.754;11.508;2023-12-14T04:37:31;3.67;;;3.43;;
21543;SDS011;10933;50.754;11.508;2023-12-14T04:39:59;3.63;;;3.20;;
21543;SDS011;10933;50.754;11.508;2023-12-14T04:42:25;3.30;;;3.10;;
21543;SDS011;10933;50.754;11.508;2023-12-14T04:44:51;4.57;;;3.73;;
21543;SDS011;10933;50.754;11.508;2023-12-14T04:47:18;4.00;;;3.70;;
21543;SDS011;10933;50.754;11.508;2023-12-14T04:49:44;4.27;;;3.80;;
21543;SDS011;10933;50.754;11.508;2023-12-14T04:52:11;3.60;;;3.40;;
21543;SDS011;10933;50.754;11.508;2023-12-14T04:54:37;3.73;;;3.53;;
21543;SDS011;10933;50.754;11.508;2023-12-14T04:57:05;4.50;;;3.07;;
21543;SDS011;10933;50.754;11.508;2023-12-14T04:59:32;3.60;;;3.40;;
21543;SDS011;10933;50.754;11.508;2023-12-14T05:01:58;6.60;;;4.07;;
21543;SDS011;10933;50.754;11.508;2023-12-14T05:04:25;4.87;;;4.57;;
21543;SDS011;10933;50.754;11.508;2023-12-14T05:06:51;4.60;;;4.40;;
21543;SDS011;10933;50.754;11.508;2023-12-14T05:09:17;5.00;;;4.60;;
21543;SDS011;10933;50.754;11.508;2023-12-14T05:11:44;4.60;;;4.30;;
21543;SDS011;10933;50.754;11.508;2023-12-14T05:14:11;5.40;;;4.40;;
21543;SDS011;10933;50.754;11.508;2023-12-14T05:16:37;3.60;;;3.40;;
21543;SDS011;10933;50.754;11.508;2023-12-14T05:19:04;4.00;;;3.70;;
21543;SDS011;10933;50.754;11.508;2023-12-14T05:21:30;4.67;;;4.27;;
21543;SDS011;10933;50.754;11.508;2023-12-14T05:23:56;4.27;;;4.03;;
21543;SDS011;10933;50.754;11.508;2023-12-14T05:26:22;4.80;;;4.50;;
21543;SDS011;10933;50.754;11.508;2023-12-14T05:28:49;5.70;;;3.30;;
21543;SDS011;10933;50.754;11.508;2023-12-14T05:31:16;3.60;;;3.40;;
21543;SDS011;10933;50.754;11.508;2023-12-14T05:33:43;4.27;;;3.97;;
21543;SDS011;10933;50.754;11.508;2023-12-14T05:36:10;6.63;;;4.70;;
21543;SDS011;10933;50.754;11.508;2023-12-14T05:38:39;4.97;;;4.67;;
21543;SDS011;10933;50.754;11.508;2023-12-14T05:41:06;5.67;;;5.37;;
21543;SDS011;10933;50.754;11.508;2023-12-14T05:43:33;6.60;;;6.00;;
21543;SDS011;10933;50.754;11.508;2023-12-14T05:45:59;9.57;;;8.77;;
21543;SDS011;10933;50.754;11.508;2023-12-14T05:48:25;9.17;;;8.37;;
21543;SDS011;10933;50.754;11.508;2023-12-14T05:50:53;11.63;;;10.83;;
21543;SDS011;10933;50.754;11.508;2023-12-14T05:53:22;12.77;;;11.87;;
21543;SDS011;10933;50.754;11.508;2023-12-14T05:55:49;14.77;;;13.33;;
21543;SDS011;10933;50.754;11.508;2023-12-14T05:58:16;14.07;;;12.63;;
21543;SDS011;10933;50.754;11.508;2023-12-14T06:00:43;15.07;;;13.10;;
21543;SDS011;10933;50.754;11.508;2023-12-14T06:03:09;20.67;;;14.00;;
21543;SDS011;10933;50.754;11.508;2023-12-14T06:05:35;14.67;;;13.03;;
21543;SDS011;10933;50.754;11.508;2023-12-14T06:08:01;19.67;;;14.50;;
21543;SDS011;10933;50.754;11.508;2023-12-14T06:10:28;15.20;;;13.57;;
21543;SDS011;10933;50.754;11.508;2023-12-14T06:12:54;17.00;;;14.57;;
21543;SDS011;10933;50.754;11.508;2023-12-14T06:15:20;17.00;;;14.17;;
21543;SDS011;10933;50.754;11.508;2023-12-14T06:17:46;16.30;;;14.10;;
21543;SDS011;10933;50.754;11.508;2023-12-14T06:20:13;17.90;;;14.80;;
21543;SDS011;10933;50.754;11.508;2023-12-14T06:22:39;21.87;;;15.03;;
21543;SDS011;10933;50.754;11.508;2023-12-14T06:25:05;19.70;;;14.87;;
21543;SDS011;10933;50.754;11.508;2023-12-14T06:27:32;23.87;;;16.20;;
21543;SDS011;10933;50.754;11.508;2023-12-14T06:29:58;22.70;;;16.10;;
21543;SDS011;10933;50.754;11.508;2023-12-14T06:32:24;29.67;;;15.67;;
21543;SDS011;10933;50.754;11.508;2023-12-14T06:34:50;28.37;;;16.83;;
21543;SDS011;10933;50.754;11.508;2023-12-14T06:37:17;26.67;;;16.67;;
21543;SDS011;10933;50.754;11.508;2023-12-14T06:39:43;22.57;;;15.43;;
21543;SDS011;10933;50.754;11.508;2023-12-14T06:42:09;25.37;;;15.63;;
21543;SDS011;10933;50.754;11.508;2023-12-14T06:44:36;22.03;;;15.80;;
21543;SDS011;10933;50.754;11.508;2023-12-14T06:47:03;25.87;;;16.30;;
21543;SDS011;10933;50.754;11.508;2023-12-14T06:49:29;28.43;;;16.40;;
21543;SDS011;10933;50.754;11.508;2023-12-14T06:51:55;28.07;;;15.87;;
21543;SDS011;10933;50.754;11.508;2023-12-14T06:54:21;30.50;;;16.17;;
21543;SDS011;10933;50.754;11.508;2023-12-14T06:56:47;35.23;;;17.23;;
21543;SDS011;10933;50.754;11.508;2023-12-14T06:59:14;29.57;;;15.53;;
21543;SDS011;10933;50.754;11.508;2023-12-14T07:01:40;27.60;;;15.23;;
21543;SDS011;10933;50.754;11.508;2023-12-14T07:04:06;29.77;;;15.13;;
21543;SDS011;10933;50.754;11.508;2023-12-14T07:06:33;27.97;;;15.60;;
21543;SDS011;10933;50.754;11.508;2023-12-14T07:09:00;37.47;;;17.03;;
21543;SDS011;10933;50.754;11.508;2023-12-14T07:11:26;36.23;;;16.17;;
21543;SDS011;10933;50.754;11.508;2023-12-14T07:13:52;29.33;;;15.57;;
21543;SDS011;10933;50.754;11.508;2023-12-14T07:16:18;33.57;;;16.43;;
21543;SDS011;10933;50.754;11.508;2023-12-14T07:18:44;31.90;;;16.30;;
21543;SDS011;10933;50.754;11.508;2023-12-14T07:21:11;30.47;;;15.53;;
21543;SDS011;10933;50.754;11.508;2023-12-14T07:23:38;42.83;;;15.90;;
21543;SDS011;10933;50.754;11.508;2023-12-14T07:26:04;26.30;;;15.37;;
21543;SDS011;10933;50.754;11.508;2023-12-14T07:28:30;28.13;;;15.90;;
21543;SDS011;10933;50.754;11.508;2023-12-14T07:30:56;33.17;;;16.03;;
21543;SDS011;10933;50.754;11.508;2023-12-14T07:33:22;32.00;;;16.30;;
21543;SDS011;10933;50.754;11.508;2023-12-14T07:35:49;23.80;;;14.30;;
21543;SDS011;10933;50.754;11.508;2023-12-14T07:38:15;29.17;;;16.23;;
21543;SDS011;10933;50.754;11.508;2023-12-14T07:40:41;22.60;;;15.70;;
21543;SDS011;10933;50.754;11.508;2023-12-14T07:43:07;19.77;;;14.27;;
21543;SDS011;10933;50.754;11.508;2023-12-14T07:45:33;31.93;;;15.77;;
21543;SDS011;10933;50.754;11.508;2023-12-14T07:47:59;25.90;;;15.00;;
21543;SDS011;10933;50.754;11.508;2023-12-14T07:50:26;33.87;;;16.60;;
21543;SDS011;10933;50.754;11.508;2023-12-14T07:52:52;30.23;;;15.57;;
21543;SDS011;10933;50.754;11.508;2023-12-14T07:55:18;27.90;;;16.43;;
21543;SDS011;10933;50.754;11.508;2023-12-14T07:57:44;26.87;;;14.73;;
21543;SDS011;10933;50.754;11.508;2023-12-14T08:00:11;27.97;;;16.93;;
21543;SDS011;10933;50.754;11.508;2023-12-14T08:02:37;20.30;;;11.60;;
21543;SDS011;10933;50.754;11.508;2023-12-14T08:05:04;24.27;;;14.87;;
21543;SDS011;10933;50.754;11.508;2023-12-14T08:07:31;21.27;;;14.13;;
21543;SDS011;10933;50.754;11.508;2023-12-14T08:09:57;18.07;;;12.47;;
21543;SDS011;10933;50.754;11.508;2023-12-14T08:12:24;17.13;;;12.80;;
21543;SDS011;10933;50.754;11.508;2023-12-14T08:14:51;15.93;;;13.10;;
21543;SDS011;10933;50.754;11.508;2023-12-14T08:17:17;18.30;;;13.57;;
21543;SDS011;10933;50.754;11.508;2023-12-14T08:19:43;19.70;;;12.10;;
21543;SDS011;10933;50.754;11.508;2023-12-14T08:22:10;14.60;;;12.37;;
21543;SDS011;10933;50.754;11.508;2023-12-14T08:24:38;14.33;;;12.37;;
21543;SDS011;10933;50.754;11.508;2023-12-14T08:27:04;13.90;;;11.63;;
21543;SDS011;10933;50.754;11.508;2023-12-14T08:29:30;13.20;;;11.80;;
21543;SDS011;10933;50.754;11.508;2023-12-14T08:31:56;11.67;;;10.57;;
21543;SDS011;10933;50.754;11.508;2023-12-14T08:34:24;11.77;;;10.37;;
21543;SDS011;10933;50.754;11.508;2023-12-14T08:36:51;12.13;;;11.00;;
21543;SDS011;10933;50.754;11.508;2023-12-14T08:39:17;11.70;;;10.60;;
21543;SDS011;10933;50.754;11.508;2023-12-14T08:41:45;12.23;;;11.10;;
21543;SDS011;10933;50.754;11.508;2023-12-14T08:44:12;11.67;;;10.50;;
21543;SDS011;10933;50.754;11.508;2023-12-14T08:46:43;12.17;;;11.07;;
21543;SDS011;10933;50.754;11.508;2023-12-14T08:49:11;11.23;;;10.33;;
21543;SDS011;10933;50.754;11.508;2023-12-14T08:51:38;11.27;;;10.27;;
21543;SDS011;10933;50.754;11.508;2023-12-14T08:54:05;9.63;;;8.73;;
21543;SDS011;10933;50.754;11.508;2023-12-14T08:56:32;11.20;;;10.27;;
21543;SDS011;10933;50.754;11.508;2023-12-14T08:58:58;10.97;;;8.83;;
21543;SDS011;10933;50.754;11.508;2023-12-14T09:01:25;10.73;;;9.93;;
21543;SDS011;10933;50.754;11.508;2023-12-14T09:03:51;10.20;;;9.37;;
21543;SDS011;10933;50.754;11.508;2023-12-14T09:06:17;9.97;;;9.03;;
21543;SDS011;10933;50.754;11.508;2023-12-14T09:08:44;9.57;;;8.73;;
21543;SDS011;10933;50.754;11.508;2023-12-14T09:11:10;9.23;;;8.63;;
21543;SDS011;10933;50.754;11.508;2023-12-14T09:13:37;9.27;;;8.63;;
21543;SDS011;10933;50.754;11.508;2023-12-14T09:16:03;9.43;;;8.73;;
21543;SDS011;10933;50.754;11.508;2023-12-14T09:18:29;8.87;;;8.17;;
21543;SDS011;10933;50.754;11.508;2023-12-14T09:20:55;8.03;;;7.43;;
21543;SDS011;10933;50.754;11.508;2023-12-14T09:23:21;8.53;;;8.00;;
21543;SDS011;10933;50.754;11.508;2023-12-14T09:25:47;9.07;;;7.70;;
21543;SDS011;10933;50.754;11.508;2023-12-14T09:28:14;11.93;;;10.60;;
21543;SDS011;10933;50.754;11.508;2023-12-14T09:30:40;12.90;;;11.77;;
21543;SDS011;10933;50.754;11.508;2023-12-14T09:33:07;12.20;;;11.30;;
21543;SDS011;10933;50.754;11.508;2023-12-14T09:35:34;11.27;;;10.50;;
21543;SDS011;10933;50.754;11.508;2023-12-14T09:38:03;10.80;;;10.00;;
21543;SDS011;10933;50.754;11.508;2023-12-14T09:40:31;10.13;;;9.30;;
21543;SDS011;10933;50.754;11.508;2023-12-14T09:42:57;9.77;;;9.10;;
21543;SDS011;10933;50.754;11.508;2023-12-14T09:45:24;8.87;;;8.07;;
21543;SDS011;10933;50.754;11.508;2023-12-14T09:47:53;5.90;;;5.50;;
21543;SDS011;10933;50.754;11.508;2023-12-14T09:50:21;5.03;;;4.73;;
21543;SDS011;10933;50.754;11.508;2023-12-14T09:52:48;6.00;;;5.60;;
21543;SDS011;10933;50.754;11.508;2023-12-14T09:55:15;5.80;;;5.40;;
21543;SDS011;10933;50.754;11.508;2023-12-14T09:57:41;5.37;;;4.97;;
21543;SDS011;10933;50.754;11.508;2023-12-14T10:00:08;6.87;;;6.37;;
21543;SDS011;10933;50.754;11.508;2023-12-14T10:02:36;7.27;;;6.77;;
21543;SDS011;10933;50.754;11.508;2023-12-14T10:05:02;8.10;;;7.37;;
21543;SDS011;10933;50.754;11.508;2023-12-14T10:07:35;8.93;;;8.23;;
21543;SDS011;10933;50.754;11.508;2023-12-14T10:10:11;8.03;;;7.53;;
21543;SDS011;10933;50.754;11.508;2023-12-14T10:12:52;8.70;;;8.00;;
21543;SDS011;10933;50.754;11.508;2023-12-14T10:15:19;8.27;;;7.77;;
21543;SDS011;10933;50.754;11.508;2023-12-14T10:17:45;9.03;;;8.43;;
21543;SDS011;10933;50.754;11.508;2023-12-14T10:20:21;7.67;;;7.20;;
21543;SDS011;10933;50.754;11.508;2023-12-14T10:22:48;7.60;;;7.10;;
21543;SDS011;10933;50.754;11.508;2023-12-14T10:25:15;7.70;;;7.20;;
21543;SDS011;10933;50.754;11.508;2023-12-14T10:27:46;7.70;;;6.50;;
21543;SDS011;10933;50.754;11.508;2023-12-14T10:30:13;6.83;;;6.17;;
21543;SDS011;10933;50.754;11.508;2023-12-14T10:32:40;6.83;;;6.33;;
21543;SDS011;10933;50.754;11.508;2023-12-14T10:35:06;7.23;;;6.73;;
21543;SDS011;10933;50.754;11.508;2023-12-14T10:37:34;6.10;;;5.70;;
21543;SDS011;10933;50.754;11.508;2023-12-14T10:40:05;6.00;;;5.60;;
21543;SDS011;10933;50.754;11.508;2023-12-14T10:42:35;6.10;;;5.70;;
21543;SDS011;10933;50.754;11.508;2023-12-14T10:45:04;6.63;;;6.23;;
21543;SDS011;10933;50.754;11.508;2023-12-14T10:47:31;5.93;;;5.53;;
21543;SDS011;10933;50.754;11.508;2023-12-14T10:49:58;6.37;;;5.97;;
21543;SDS011;10933;50.754;11.508;2023-12-14T10:52:26;5.67;;;5.37;;
21543;SDS011;10933;50.754;11.508;2023-12-14T10:54:56;5.40;;;5.03;;
21543;SDS011;10933;50.754;11.508;2023-12-14T10:57:27;5.70;;;5.10;;
21543;SDS011;10933;50.754;11.508;2023-12-14T10:59:57;5.30;;;4.93;;
21543;SDS011;10933;50.754;11.508;2023-12-14T11:02:24;5.17;;;4.77;;
21543;SDS011;10933;50.754;11.508;2023-12-14T11:04:59;5.07;;;4.77;;
21543;SDS011;10933;50.754;11.508;2023-12-14T11:07:43;4.50;;;4.20;;
21543;SDS011;10933;50.754;11.508;2023-12-14T11:10:09;7.17;;;6.67;;
21543;SDS011;10933;50.754;11.508;2023-12-14T11:12:55;7.77;;;7.27;;
21543;SDS011;10933;50.754;11.508;2023-12-14T11:15:24;5.13;;;4.83;;
21543;SDS011;10933;50.754;11.508;2023-12-14T11:25:59;6.17;;;5.77;;
21543;SDS011;10933;50.754;11.508;2023-12-14T11:28:30;5.87;;;5.47;;
21543;SDS011;10933;50.754;11.508;2023-12-14T11:31:01;7.30;;;5.40;;
21543;SDS011;10933;50.754;11.508;2023-12-14T11:33:31;5.47;;;5.17;;
21543;SDS011;10933;50.754;11.508;2023-12-14T11:35:58;5.30;;;4.87;;
21543;SDS011;10933;50.754;11.508;2023-12-14T11:38:25;5.43;;;5.03;;
21543;SDS011;10933;50.754;11.508;2023-12-14T11:40:52;5.47;;;5.07;;
21543;SDS011;10933;50.754;11.508;2023-12-14T11:43:18;4.97;;;4.63;;
21543;SDS011;10933;50.754;11.508;2023-12-14T11:45:48;4.33;;;4.03;;
21543;SDS011;10933;50.754;11.508;2023-12-14T11:48:15;4.77;;;4.47;;
21543;SDS011;10933;50.754;11.508;2023-12-14T11:50:41;4.60;;;4.30;;
21543;SDS011;10933;50.754;11.508;2023-12-14T11:53:09;3.73;;;3.53;;
21543;SDS011;10933;50.754;11.508;2023-12-14T11:55:36;6.00;;;5.70;;
21543;SDS011;10933;50.754;11.508;2023-12-14T11:58:03;2.30;;;2.20;;
21543;SDS011;10933;50.754;11.508;2023-12-14T12:00:30;2.43;;;2.23;;
21543;SDS011;10933;50.754;11.508;2023-12-14T12:03:10;5.20;;;2.00;;
21543;SDS011;10933;50.754;11.508;2023-12-14T12:05:41;2.57;;;2.37;;
21543;SDS011;10933;50.754;11.508;2023-12-14T12:08:11;2.70;;;1.80;;
21543;SDS011;10933;50.754;11.508;2023-12-14T12:10:39;1.70;;;1.60;;
21543;SDS011;10933;50.754;11.508;2023-12-14T12:13:08;1.63;;;1.53;;
21543;SDS011;10933;50.754;11.508;2023-12-14T12:15:41;2.10;;;1.40;;
21543;SDS011;10933;50.754;11.508;2023-12-14T12:18:08;1.63;;;1.53;;
21543;SDS011;10933;50.754;11.508;2023-12-14T12:20:35;1.87;;;1.30;;
21543;SDS011;10933;50.754;11.508;2023-12-14T12:23:02;2.67;;;1.43;;
21543;SDS011;10933;50.754;11.508;2023-12-14T12:25:28;1.50;;;1.40;;
21543;SDS011;10933;50.754;11.508;2023-12-14T12:27:56;1.43;;;1.33;;
21543;SDS011;10933;50.754;11.508;2023-12-14T12:30:27;1.20;;;1.10;;
21543;SDS011;10933;50.754;11.508;2023-12-14T12:32:54;1.37;;;1.23;;
21543;SDS011;10933;50.754;11.508;2023-12-14T12:35:20;1.60;;;1.03;;
21543;SDS011;10933;50.754;11.508;2023-12-14T12:37:50;1.00;;;1.00;;
21543;SDS011;10933;50.754;11.508;2023-12-14T12:40:23;0.90;;;0.90;;
21543;SDS011;10933;50.754;11.508;2023-12-14T12:42:51;0.80;;;0.80;;
21543;SDS011;10933;50.754;11.508;2023-12-14T12:45:17;0.80;;;0.80;;
21543;SDS011;10933;50.754;11.508;2023-12-14T12:47:46;0.93;;;0.80;;
21543;SDS011;10933;50.754;11.508;2023-12-14T12:50:12;0.90;;;0.90;;
21543;SDS011;10933;50.754;11.508;2023-12-14T12:52:38;1.13;;;1.00;;
21543;SDS011;10933;50.754;11.508;2023-12-14T12:55:06;0.80;;;0.80;;
21543;SDS011;10933;50.754;11.508;2023-12-14T12:57:32;1.10;;;1.00;;
21543;SDS011;10933;50.754;11.508;2023-12-14T12:59:58;1.43;;;1.33;;
21543;SDS011;10933;50.754;11.508;2023-12-14T13:02:24;1.13;;;0.93;;
21543;SDS011;10933;50.754;11.508;2023-12-14T13:04:51;1.20;;;1.10;;
21543;SDS011;10933;50.754;11.508;2023-12-14T13:07:18;1.00;;;1.00;;
21543;SDS011;10933;50.754;11.508;2023-12-14T13:09:44;4.17;;;3.97;;
21543;SDS011;10933;50.754;11.508;2023-12-14T13:12:10;5.97;;;4.00;;
21543;SDS011;10933;50.754;11.508;2023-12-14T13:14:37;4.33;;;4.13;;
21543;SDS011;10933;50.754;11.508;2023-12-14T13:17:03;5.30;;;5.00;;
21543;SDS011;10933;50.754;11.508;2023-12-14T13:19:29;4.00;;;3.80;;
21543;SDS011;10933;50.754;11.508;2023-12-14T13:21:55;5.63;;;5.13;;
21543;SDS011;10933;50.754;11.508;2023-12-14T13:24:24;5.50;;;5.20;;
21543;SDS011;10933;50.754;11.508;2023-12-14T13:26:51;8.07;;;5.20;;
21543;SDS011;10933;50.754;11.508;2023-12-14T13:29:17;4.70;;;4.40;;
21543;SDS011;10933;50.754;11.508;2023-12-14T13:31:43;5.60;;;5.30;;
21543;SDS011;10933;50.754;11.508;2023-12-14T13:34:09;5.03;;;4.73;;
21543;SDS011;10933;50.754;11.508;2023-12-14T13:36:35;5.60;;;5.20;;
21543;SDS011;10933;50.754;11.508;2023-12-14T13:39:01;6.47;;;6.07;;
21543;SDS011;10933;50.754;11.508;2023-12-14T13:41:28;7.87;;;7.37;;
21543;SDS011;10933;50.754;11.508;2023-12-14T13:43:58;7.70;;;7.20;;
21543;SDS011;10933;50.754;11.508;2023-12-14T13:46:25;7.83;;;7.33;;
21543;SDS011;10933;50.754;11.508;2023-12-14T13:48:51;7.00;;;6.50;;
21543;SDS011;10933;50.754;11.508;2023-12-14T13:51:18;9.53;;;8.90;;
21543;SDS011;10933;50.754;11.508;2023-12-14T13:53:44;7.57;;;7.17;;
21543;SDS011;10933;50.754;11.508;2023-12-14T13:56:10;8.77;;;8.27;;
21543;SDS011;10933;50.754;11.508;2023-12-14T13:58:36;8.57;;;8.07;;
21543;SDS011;10933;50.754;11.508;2023-12-14T14:01:03;9.77;;;9.17;;
21543;SDS011;10933;50.754;11.508;2023-12-14T14:03:32;10.27;;;9.67;;
21543;SDS011;10933;50.754;11.508;2023-12-14T14:05:58;9.30;;;8.77;;
21543;SDS011;10933;50.754;11.508;2023-12-14T14:08:24;9.97;;;8.77;;
21543;SDS011;10933;50.754;11.508;2023-12-14T14:10:51;9.30;;;8.80;;
21543;SDS011;10933;50.754;11.508;2023-12-14T14:13:17;9.17;;;8.67;;
21543;SDS011;10933;50.754;11.508;2023-12-14T14:15:43;7.80;;;7.40;;
21543;SDS011;10933;50.754;11.508;2023-12-14T14:18:09;8.70;;;8.20;;
21543;SDS011;10933;50.754;11.508;2023-12-14T14:20:35;8.37;;;7.87;;
21543;SDS011;10933;50.754;11.508;2023-12-14T14:23:01;7.97;;;7.57;;
21543;SDS011;10933;50.754;11.508;2023-12-14T14:25:27;7.80;;;7.40;;
21543;SDS011;10933;50.754;11.508;2023-12-14T14:27:53;9.17;;;8.67;;
21543;SDS011;10933;50.754;11.508;2023-12-14T14:30:19;9.77;;;9.27;;